MSC Divina — 3FFA5 — position and weather

sailwx.info

Track history (hours):
 
Tides and Currents Weather Stations Pressure Air Temp Water Temp Dewpoint Dewpoint Depression Visibility Wind Speed Wind Dir Waves Ship Positions

MSC Divina

Last reported at 2016-Jul-30 03:28 UTC. Time now 2016-Jul-30 05:29 UTC.
Position N 26°04' W 078°36'.

Length 333 m; draft 8.6 m.

Type: Passenger vessel. MMSI: 373178000.

Date/timePositionNaut miles runAvg speedWind from/ knotsBaromVisibWave heightAir tempDewpointWater temp
2016-Jul-30 03:28N 26°04' W 078°36'35 1.6
2016-Jul-29 05:33N 26°06' W 079°15'2019.7
2016-Jul-29 04:33N 25°47' W 079°22'52218.0
2016-Jul-27 23:34N 20°34' W 086°57'4 3.5
2016-Jul-27 22:30N 20°31' W 086°57'0 0.0
2016-Jul-27 21:33N 20°31' W 086°57'0 0.0
2016-Jul-27 20:33N 20°31' W 086°57'0 0.0
2016-Jul-27 19:33N 20°31' W 086°57'0 0.0
2016-Jul-27 18:33N 20°31' W 086°57'0 0.0
2016-Jul-27 17:31N 20°31' W 086°57'0 0.0
2016-Jul-27 16:31N 20°31' W 086°57'0 0.0
2016-Jul-27 15:33N 20°31' W 086°57'0 0.0
2016-Jul-27 14:33N 20°31' W 086°57'8 7.9
2016-Jul-27 13:34N 20°37' W 086°53'  
2016-Jul-24 00:10N 25°40' W 080°01'711.3
2016-Jul-23 23:33N 25°46' W 080°06'4 3.8
2016-Jul-23 22:25N 25°47' W 080°10'0 0.0
2016-Jul-23 21:25N 25°47' W 080°10'0 0.0
2016-Jul-23 20:28N 25°47' W 080°10'0 0.0
2016-Jul-23 19:28N 25°47' W 080°10'0 0.0
2016-Jul-23 18:25N 25°47' W 080°10'0 0.0
2016-Jul-23 17:31N 25°47' W 080°10'0 0.0
2016-Jul-23 16:31N 25°47' W 080°10'0 0.0
2016-Jul-23 15:31N 25°47' W 080°10'0 0.0
2016-Jul-23 14:31N 25°47' W 080°10'0 0.0
2016-Jul-23 13:19N 25°47' W 080°10'0 0.0
2016-Jul-23 12:31N 25°47' W 080°10'0 0.0
2016-Jul-23 11:31N 25°47' W 080°10'1 0.3
2016-Jul-23 09:33N 25°47' W 080°11'7 6.9
2016-Jul-23 08:34N 25°46' W 080°03'1414.2
2016-Jul-23 07:33N 25°54' W 079°50'1615.8
2016-Jul-23 06:33N 26°03' W 079°36'86718.1
2016-Jul-21 06:33N 18°35' W 066°14'10 8.6
2016-Jul-21 05:25N 18°28' W 066°07'0 0.0
2016-Jul-21 04:28N 18°28' W 066°07'0 0.0
2016-Jul-21 03:25N 18°28' W 066°07'0 0.0
2016-Jul-21 02:31N 18°28' W 066°07'0 0.0
2016-Jul-21 01:31N 18°28' W 066°07'0 0.0
2016-Jul-21 00:31N 18°28' W 066°07'0 0.0
2016-Jul-20 23:31N 18°28' W 066°07'0 0.0
2016-Jul-20 22:31N 18°28' W 066°07'0 0.0
2016-Jul-20 21:25N 18°28' W 066°07'0 0.0
2016-Jul-20 20:31N 18°28' W 066°07'0 0.0
2016-Jul-20 19:31N 18°28' W 066°07'0 0.0
2016-Jul-20 18:25N 18°28' W 066°07'0 0.0
2016-Jul-20 17:25N 18°28' W 066°07'0 0.0
2016-Jul-20 16:25N 18°28' W 066°07'0 0.0
2016-Jul-20 15:22N 18°28' W 066°07'0 0.0
2016-Jul-20 14:31N 18°28' W 066°07'0 0.0
2016-Jul-20 13:28N 18°28' W 066°07'0 0.0
2016-Jul-20 12:33N 18°28' W 066°07'6 5.9
2016-Jul-20 11:34N 18°33' W 066°05'6616.1
2016-Jul-20 07:26N 18°12' W 064°58'1618.2
2016-Jul-20 06:34N 18°09' W 064°42'  
Track history (hours):
 
Tides and Currents Weather Stations Pressure Air Temp Water Temp Dewpoint Dewpoint Depression Visibility Wind Speed Wind Dir Waves Ship Positions

MSC Divina

Last reported at 2016-Jul-30 03:28 UTC. Time now 2016-Jul-30 05:29 UTC.
Position N 26°04' W 078°36'.

Length 333 m; draft 8.6 m.

Type: Passenger vessel. MMSI: 373178000.

Date/timePositionNaut miles runAvg speedWind from/ knotsBaromVisibWave heightAir tempDewpointWater temp
2016-Jul-30 03:28N 26°04' W 078°36'35 1.6
2016-Jul-29 05:33N 26°06' W 079°15'2019.7
2016-Jul-29 04:33N 25°47' W 079°22'52218.0
2016-Jul-27 23:34N 20°34' W 086°57'4 3.5
2016-Jul-27 22:30N 20°31' W 086°57'0 0.0
2016-Jul-27 21:33N 20°31' W 086°57'0 0.0
2016-Jul-27 20:33N 20°31' W 086°57'0 0.0
2016-Jul-27 19:33N 20°31' W 086°57'0 0.0
2016-Jul-27 18:33N 20°31' W 086°57'0 0.0
2016-Jul-27 17:31N 20°31' W 086°57'0 0.0
2016-Jul-27 16:31N 20°31' W 086°57'0 0.0
2016-Jul-27 15:33N 20°31' W 086°57'0 0.0
2016-Jul-27 14:33N 20°31' W 086°57'8 7.9
2016-Jul-27 13:34N 20°37' W 086°53'  
2016-Jul-24 00:10N 25°40' W 080°01'711.3
2016-Jul-23 23:33N 25°46' W 080°06'4 3.8
2016-Jul-23 22:25N 25°47' W 080°10'0 0.0
2016-Jul-23 21:25N 25°47' W 080°10'0 0.0
2016-Jul-23 20:28N 25°47' W 080°10'0 0.0
2016-Jul-23 19:28N 25°47' W 080°10'0 0.0
2016-Jul-23 18:25N 25°47' W 080°10'0 0.0
2016-Jul-23 17:31N 25°47' W 080°10'0 0.0
2016-Jul-23 16:31N 25°47' W 080°10'0 0.0
2016-Jul-23 15:31N 25°47' W 080°10'0 0.0
2016-Jul-23 14:31N 25°47' W 080°10'0 0.0
2016-Jul-23 13:19N 25°47' W 080°10'0 0.0
2016-Jul-23 12:31N 25°47' W 080°10'0 0.0
2016-Jul-23 11:31N 25°47' W 080°10'1 0.3
2016-Jul-23 09:33N 25°47' W 080°11'7 6.9
2016-Jul-23 08:34N 25°46' W 080°03'1414.2
2016-Jul-23 07:33N 25°54' W 079°50'1615.8
2016-Jul-23 06:33N 26°03' W 079°36'86718.1
2016-Jul-21 06:33N 18°35' W 066°14'10 8.6
2016-Jul-21 05:25N 18°28' W 066°07'0 0.0
2016-Jul-21 04:28N 18°28' W 066°07'0 0.0
2016-Jul-21 03:25N 18°28' W 066°07'0 0.0
2016-Jul-21 02:31N 18°28' W 066°07'0 0.0
2016-Jul-21 01:31N 18°28' W 066°07'0 0.0
2016-Jul-21 00:31N 18°28' W 066°07'0 0.0
2016-Jul-20 23:31N 18°28' W 066°07'0 0.0
2016-Jul-20 22:31N 18°28' W 066°07'0 0.0
2016-Jul-20 21:25N 18°28' W 066°07'0 0.0
2016-Jul-20 20:31N 18°28' W 066°07'0 0.0
2016-Jul-20 19:31N 18°28' W 066°07'0 0.0
2016-Jul-20 18:25N 18°28' W 066°07'0 0.0
2016-Jul-20 17:25N 18°28' W 066°07'0 0.0
2016-Jul-20 16:25N 18°28' W 066°07'0 0.0
2016-Jul-20 15:22N 18°28' W 066°07'0 0.0
2016-Jul-20 14:31N 18°28' W 066°07'0 0.0
2016-Jul-20 13:28N 18°28' W 066°07'0 0.0
2016-Jul-20 12:33N 18°28' W 066°07'6 5.9
2016-Jul-20 11:34N 18°33' W 066°05'6616.1
2016-Jul-20 07:26N 18°12' W 064°58'1618.2
2016-Jul-20 06:34N 18°09' W 064°42'  

Dump ship's entire track history